バンダルスリブガワン の空港の天気 - METARとTAF

ブルネイ国際空港 ( WBSB / BWN ) - ブルネイ バンダルスリブガワン
飛行場実況気象(Metar)
観測時間09/22 20:30 BNT (09/22 12:30 UTC)
風向・風速南南西 1m/s
視程10km以上
天気現象
全天の4割程度の雲 雲底高度 430m
少しの雲 雲底高度 460m
全天の8割程度の雲 雲底高度 4270m
気温28℃
湿度84%
気圧1013hPa
METARWBSB 221230Z 20002KT 9999 TS SCT014 FEW015CB BKN140 28/25 Q1013 TEMPO 16016KT 4000 TSRA SHRA
過去の天気等 Google飛行場航空写真 Wunderground天気予報

過去48時間のMETAR

飛行場予報(TAF)
発表時間: 9/22 18:50 BNT (9/22 10:50 UTC)
予報対象時間: 22日20時 BNT ~ 24日2時 BNT
風向・風速南南西 2m/s
視程10km以上
全天の4割程度の雲 雲底高度 430m
少しの積乱雲 雲底高度 460m
22日21時 BNT ~ 22日23時 BNT に一時的に
視程7000m
天気現象しゅう雨 雷雨
23日4時 BNT ~ 23日7時 BNT に一時的に
視程5000m
天気現象しゅう雨
23日11時 BNT ~ 23日13時 BNT に徐々に
風向・風速西北西 5m/s
全天の4割程度の雲 雲底高度 490m
少しの積乱雲 雲底高度 520m
TAF WBSB 221050Z 2212/2318 20003KT 9999 SCT014 FEW015CB
TEMPO 2213/2215 7000 SHRA TSRA
TEMPO 2220/2223 5000 SHRA
BECMG 2303/2305 30010KT SCT016 FEW017CB